createdAt,value
2023-02-14T00:03:27.877Z,19.20
2023-02-14T00:08:30.281Z,22.13
2023-02-14T00:13:31.666Z,19.08
2023-02-14T00:18:51.690Z,17.10
2023-02-14T00:23:53.045Z,18.58
2023-02-14T00:28:54.418Z,16.35
2023-02-14T00:33:55.780Z,23.05
2023-02-14T00:38:57.364Z,23.80
2023-02-14T00:43:59.266Z,19.70
2023-02-14T00:49:00.706Z,19.30
2023-02-14T00:54:03.252Z,15.82
2023-02-14T00:59:04.639Z,14.77
2023-02-14T01:04:07.650Z,17.85
2023-02-14T01:09:09.188Z,20.77
2023-02-14T01:14:10.588Z,20.02
2023-02-14T01:19:11.919Z,19.17
2023-02-14T01:24:13.343Z,18.45
2023-02-14T01:29:14.658Z,15.27
2023-02-14T01:34:16.082Z,18.10
2023-02-14T01:39:18.495Z,16.42
2023-02-14T01:44:25.827Z,19.85
2023-02-14T01:49:31.788Z,15.55
2023-02-14T01:54:36.117Z,18.85
2023-02-14T01:59:43.410Z,21.98
2023-02-14T02:04:46.730Z,15.52
2023-02-14T02:09:55.711Z,23.63
2023-02-14T02:14:59.182Z,22.23
2023-02-14T02:20:37.790Z,24.92
2023-02-14T02:31:39.927Z,25.88
2023-02-14T02:36:51.634Z,22.42
2023-02-14T02:42:05.953Z,21.80
2023-02-14T02:47:27.230Z,23.52
2023-02-14T02:52:58.670Z,24.08
2023-02-14T02:58:00.431Z,21.13
2023-02-14T03:03:20.480Z,24.52
2023-02-14T03:08:21.799Z,25.92
2023-02-14T03:13:44.427Z,21.77
2023-02-14T03:18:57.213Z,24.77
2023-02-14T03:24:09.617Z,20.60
2023-02-14T03:29:48.507Z,23.10
2023-02-14T03:35:34.278Z,26.67
2023-02-14T03:41:02.638Z,24.15
2023-02-14T03:51:12.045Z,24.23
2023-02-14T03:56:26.701Z,23.83
2023-02-14T04:01:36.564Z,24.55
2023-02-14T04:06:38.068Z,26.83
2023-02-14T04:11:39.782Z,25.27
2023-02-14T04:16:59.885Z,25.60
2023-02-14T04:22:01.251Z,24.60
2023-02-14T04:27:11.544Z,25.48
2023-02-14T04:32:16.283Z,27.38
2023-02-14T04:37:19.820Z,26.70
2023-02-14T04:42:21.209Z,32.30
2023-02-14T04:47:22.620Z,25.50
2023-02-14T04:52:24.033Z,27.42
2023-02-14T04:57:25.433Z,26.88
2023-02-14T05:02:26.891Z,28.42
2023-02-14T05:07:28.419Z,25.55
2023-02-14T05:12:29.881Z,32.50
2023-02-14T05:17:31.312Z,33.25
2023-02-14T05:22:32.695Z,40.10
2023-02-14T05:27:34.078Z,33.42
2023-02-14T05:32:35.470Z,53.78
2023-02-14T05:37:36.821Z,68.90
2023-02-14T05:42:38.183Z,51.58
2023-02-14T05:47:39.685Z,39.90
2023-02-14T05:52:41.569Z,60.63
2023-02-14T05:57:42.969Z,80.32
2023-02-14T06:02:44.395Z,90.18
2023-02-14T06:07:50.466Z,158.57
2023-02-14T06:12:53.151Z,55.65
2023-02-14T06:17:56.178Z,63.83
2023-02-14T06:22:57.591Z,258.65
2023-02-14T06:27:59.323Z,65.20
2023-02-14T06:33:00.760Z,70.93
2023-02-14T06:38:02.115Z,71.55
2023-02-14T06:43:03.572Z,102.22
2023-02-14T06:48:05.082Z,61.50
2023-02-14T06:53:06.487Z,63.10
2023-02-14T06:58:07.908Z,53.25
2023-02-14T07:03:09.708Z,55.33
2023-02-14T07:08:11.255Z,130.88
2023-02-14T07:13:12.931Z,90.18
2023-02-14T07:18:14.269Z,55.28
2023-02-14T07:23:15.674Z,55.15
2023-02-14T07:28:17.056Z,52.53
2023-02-14T07:33:18.529Z,41.65
2023-02-14T07:38:19.998Z,40.05
2023-02-14T07:43:21.398Z,34.15
2023-02-14T07:48:22.828Z,24.17
2023-02-14T07:53:24.995Z,25.80
2023-02-14T07:58:26.490Z,24.02
2023-02-14T08:03:27.839Z,24.65
2023-02-14T08:08:31.825Z,24.00
2023-02-14T08:13:33.475Z,28.25
2023-02-14T08:18:37.917Z,26.08
2023-02-14T08:23:39.317Z,23.00
2023-02-14T08:28:40.729Z,28.02
2023-02-14T08:33:44.156Z,24.45
2023-02-14T08:38:47.872Z,25.63
2023-02-14T08:43:50.009Z,21.45
2023-02-14T08:48:53.291Z,26.52
2023-02-14T08:53:55.865Z,25.58
2023-02-14T08:58:57.226Z,24.65
2023-02-14T09:03:58.815Z,22.63
2023-02-14T09:09:02.466Z,23.60
2023-02-14T09:14:04.037Z,24.80
2023-02-14T09:19:05.662Z,25.58
2023-02-14T09:24:07.020Z,22.67
2023-02-14T09:29:08.369Z,24.73
2023-02-14T09:34:09.727Z,24.80
2023-02-14T09:39:11.142Z,29.10
2023-02-14T09:44:29.200Z,20.10
2023-02-14T09:49:35.976Z,26.35
2023-02-14T09:54:37.568Z,22.47
2023-02-14T10:00:13.376Z,21.90
2023-02-14T10:05:28.898Z,27.35
2023-02-14T10:11:06.960Z,22.95
2023-02-14T10:16:27.436Z,24.02
2023-02-14T10:21:42.992Z,23.00
2023-02-14T10:26:48.189Z,28.42
2023-02-14T10:31:55.724Z,27.55
2023-02-14T11:30:57.490Z,30.63
2023-02-14T11:35:59.752Z,26.38
2023-02-14T11:41:02.347Z,33.63
2023-02-14T11:46:15.034Z,29.33
2023-02-14T12:01:52.996Z,38.80
2023-02-14T12:06:54.734Z,33.03
2023-02-14T12:12:14.787Z,38.20
2023-02-14T12:17:29.666Z,31.95
2023-02-14T12:22:37.119Z,33.72
2023-02-14T12:27:48.974Z,32.22
2023-02-14T12:32:52.812Z,38.88
2023-02-14T12:38:03.810Z,33.50
2023-02-14T12:43:16.099Z,28.23
2023-02-14T12:48:42.073Z,31.02
2023-02-14T12:53:58.222Z,30.35
2023-02-14T12:59:28.385Z,33.60
2023-02-14T13:04:53.106Z,29.98
2023-02-14T13:10:04.477Z,27.70
2023-02-14T13:15:18.977Z,31.42
2023-02-14T13:20:44.431Z,30.25
2023-02-14T13:25:52.484Z,30.75
2023-02-14T13:30:55.758Z,25.98
2023-02-14T13:36:02.100Z,34.90
2023-02-14T13:41:05.368Z,26.33
2023-02-14T13:46:06.872Z,26.70
2023-02-14T13:51:10.408Z,26.67
2023-02-14T13:56:11.691Z,34.90
2023-02-14T14:01:33.285Z,30.55
2023-02-14T14:07:02.702Z,30.02
2023-02-14T14:12:04.127Z,30.98
2023-02-14T14:17:19.508Z,30.05
2023-02-14T14:22:22.208Z,30.17
2023-02-14T14:27:44.430Z,28.38
2023-02-14T14:32:46.460Z,32.40
2023-02-14T14:37:57.075Z,28.55
2023-02-14T14:43:32.574Z,27.63
2023-02-14T14:48:45.395Z,34.55
2023-02-14T14:53:54.584Z,26.70
2023-02-14T14:58:56.281Z,29.92
2023-02-14T15:04:18.253Z,31.75
2023-02-14T15:09:24.105Z,31.45
2023-02-14T15:14:28.841Z,32.80
2023-02-14T15:19:38.826Z,34.35
2023-02-14T15:24:40.245Z,36.13
2023-02-14T15:29:41.662Z,40.72
2023-02-14T15:34:43.422Z,36.33
2023-02-14T15:39:49.299Z,36.75
2023-02-14T15:44:50.704Z,34.58
2023-02-14T15:49:52.062Z,36.35
2023-02-14T15:54:53.712Z,40.88
2023-02-14T15:59:55.325Z,37.60
2023-02-14T16:05:04.117Z,42.03
2023-02-14T16:10:25.714Z,42.22
2023-02-14T16:15:32.492Z,42.55
2023-02-14T16:20:46.841Z,41.20
2023-02-14T16:25:48.894Z,42.03
2023-02-14T16:30:55.974Z,41.47
2023-02-14T16:36:06.209Z,50.67
2023-02-14T16:41:15.032Z,45.83
2023-02-14T16:46:20.628Z,53.03
2023-02-14T16:51:27.183Z,49.08
2023-02-14T16:56:40.900Z,50.72
2023-02-14T17:01:42.392Z,52.30
2023-02-14T17:06:49.415Z,45.88
2023-02-14T17:11:52.657Z,52.22
2023-02-14T17:16:57.069Z,53.45
2023-02-14T17:21:59.812Z,46.88
2023-02-14T17:27:01.137Z,49.63
2023-02-14T17:32:02.921Z,45.72
2023-02-14T17:37:04.297Z,52.15
2023-02-14T17:42:05.850Z,55.20
2023-02-14T17:47:07.190Z,78.00
2023-02-14T17:52:08.508Z,61.22
2023-02-14T17:57:10.332Z,57.03
2023-02-14T18:02:11.837Z,58.67
2023-02-14T18:07:13.169Z,55.95
2023-02-14T18:12:15.162Z,59.65
2023-02-14T18:17:16.668Z,63.33
2023-02-14T18:22:18.048Z,55.63
2023-02-14T18:27:19.425Z,60.00
2023-02-14T18:32:20.762Z,77.22
2023-02-14T18:37:22.191Z,69.65
2023-02-14T18:42:23.748Z,68.80
2023-02-14T18:47:25.138Z,63.65
2023-02-14T18:52:26.540Z,70.18
2023-02-14T18:57:27.862Z,64.43
2023-02-14T19:02:29.257Z,58.53
2023-02-14T19:07:30.978Z,50.20
2023-02-14T19:12:33.572Z,50.00
2023-02-14T19:17:35.225Z,70.93
2023-02-14T19:22:38.361Z,58.05
2023-02-14T19:27:39.801Z,58.97
2023-02-14T19:32:41.174Z,63.83
2023-02-14T19:37:42.496Z,58.85
2023-02-14T19:42:43.831Z,61.92
2023-02-14T19:47:47.338Z,51.25
2023-02-14T19:52:49.163Z,47.30
2023-02-14T19:57:50.614Z,49.08
2023-02-14T20:02:52.050Z,53.40
2023-02-14T20:07:56.405Z,52.65
2023-02-14T20:12:57.971Z,50.72
2023-02-14T20:17:59.624Z,51.63
2023-02-14T20:23:00.989Z,45.53
2023-02-14T20:28:02.531Z,48.72
2023-02-14T20:33:04.564Z,48.30
2023-02-14T20:38:09.523Z,50.95
2023-02-14T20:43:11.206Z,51.88
2023-02-14T20:48:12.828Z,49.72
2023-02-14T20:53:14.277Z,53.22
2023-02-14T20:58:15.662Z,53.15
2023-02-14T21:03:17.180Z,53.28
2023-02-14T21:08:18.612Z,60.08
2023-02-14T21:13:20.196Z,53.38
2023-02-14T21:18:21.763Z,50.42
2023-02-14T21:23:23.131Z,49.45
2023-02-14T21:28:24.737Z,51.88
2023-02-14T21:33:26.070Z,49.97
2023-02-14T21:38:27.793Z,52.08
2023-02-14T21:43:29.215Z,52.97
2023-02-14T21:48:54.259Z,49.78
2023-02-14T21:53:56.546Z,47.15
2023-02-14T21:58:57.898Z,46.83
2023-02-14T22:04:00.410Z,55.45
2023-02-14T22:09:01.769Z,49.28
2023-02-14T22:14:03.600Z,52.38
2023-02-14T22:19:07.184Z,49.42
2023-02-14T22:24:08.539Z,47.78
2023-02-14T22:29:11.836Z,47.70
2023-02-14T22:34:17.525Z,50.92
2023-02-14T22:39:18.879Z,45.75
2023-02-14T22:44:20.285Z,41.70
2023-02-14T22:49:21.622Z,44.58
2023-02-14T22:54:23.135Z,48.00
2023-02-14T22:59:25.740Z,46.33
2023-02-14T23:04:29.638Z,46.10
2023-02-14T23:09:31.018Z,52.03
2023-02-14T23:14:51.306Z,51.05
2023-02-14T23:20:11.086Z,49.83
2023-02-14T23:25:12.461Z,52.05
2023-02-14T23:30:16.634Z,50.67
2023-02-14T23:35:18.126Z,45.17
2023-02-14T23:40:20.313Z,43.70
2023-02-14T23:45:36.772Z,37.53
2023-02-14T23:50:38.311Z,36.72
2023-02-14T23:55:39.615Z,37.25
